sensor_id;sensor_type;location;lat;lon;timestamp;P1;durP1;ratioP1;P2;durP2;ratioP2
78312;SDS011;67568;47.438;21.408;2023-04-05T00:00:38;7.57;;;2.38;;
78312;SDS011;67568;47.438;21.408;2023-04-05T00:03:06;7.03;;;2.08;;
78312;SDS011;67568;47.438;21.408;2023-04-05T00:05:32;5.97;;;2.03;;
78312;SDS011;67568;47.438;21.408;2023-04-05T00:07:59;7.93;;;2.47;;
78312;SDS011;67568;47.438;21.408;2023-04-05T00:10:27;8.33;;;2.60;;
78312;SDS011;67568;47.438;21.408;2023-04-05T00:12:54;9.68;;;2.38;;
78312;SDS011;67568;47.438;21.408;2023-04-05T00:15:21;7.78;;;2.42;;
78312;SDS011;67568;47.438;21.408;2023-04-05T00:17:48;6.05;;;2.20;;
78312;SDS011;67568;47.438;21.408;2023-04-05T00:20:15;7.22;;;2.22;;
78312;SDS011;67568;47.438;21.408;2023-04-05T00:22:41;7.87;;;2.27;;
78312;SDS011;67568;47.438;21.408;2023-04-05T00:25:08;8.20;;;2.80;;
78312;SDS011;67568;47.438;21.408;2023-04-05T00:27:35;11.55;;;2.70;;
78312;SDS011;67568;47.438;21.408;2023-04-05T00:30:02;9.25;;;2.72;;
78312;SDS011;67568;47.438;21.408;2023-04-05T00:32:28;8.57;;;2.80;;
78312;SDS011;67568;47.438;21.408;2023-04-05T00:34:55;6.77;;;2.60;;
78312;SDS011;67568;47.438;21.408;2023-04-05T00:37:22;8.25;;;2.85;;
78312;SDS011;67568;47.438;21.408;2023-04-05T00:39:48;8.13;;;2.97;;
78312;SDS011;67568;47.438;21.408;2023-04-05T00:42:15;8.05;;;2.70;;
78312;SDS011;67568;47.438;21.408;2023-04-05T00:44:41;9.52;;;2.88;;
78312;SDS011;67568;47.438;21.408;2023-04-05T00:47:08;7.23;;;3.00;;
78312;SDS011;67568;47.438;21.408;2023-04-05T00:49:35;6.63;;;2.80;;
78312;SDS011;67568;47.438;21.408;2023-04-05T00:52:02;7.57;;;3.40;;
78312;SDS011;67568;47.438;21.408;2023-04-05T00:54:29;11.13;;;3.17;;
78312;SDS011;67568;47.438;21.408;2023-04-05T00:56:56;9.70;;;3.50;;
78312;SDS011;67568;47.438;21.408;2023-04-05T00:59:23;8.27;;;2.80;;
78312;SDS011;67568;47.438;21.408;2023-04-05T01:01:54;10.20;;;3.35;;
78312;SDS011;67568;47.438;21.408;2023-04-05T01:04:27;8.50;;;3.40;;
78312;SDS011;67568;47.438;21.408;2023-04-05T01:09:59;7.78;;;3.08;;
78312;SDS011;67568;47.438;21.408;2023-04-05T01:12:28;9.20;;;3.40;;
78312;SDS011;67568;47.438;21.408;2023-04-05T01:14:58;10.27;;;3.38;;
78312;SDS011;67568;47.438;21.408;2023-04-05T01:17:26;7.95;;;2.90;;
78312;SDS011;67568;47.438;21.408;2023-04-05T01:19:57;10.20;;;3.50;;
78312;SDS011;67568;47.438;21.408;2023-04-05T01:30:23;9.70;;;3.70;;
78312;SDS011;67568;47.438;21.408;2023-04-05T01:35:36;8.98;;;3.75;;
78312;SDS011;67568;47.438;21.408;2023-04-05T01:38:06;9.80;;;3.70;;
78312;SDS011;67568;47.438;21.408;2023-04-05T01:40:38;9.38;;;3.70;;
78312;SDS011;67568;47.438;21.408;2023-04-05T01:43:15;11.32;;;4.13;;
78312;SDS011;67568;47.438;21.408;2023-04-05T01:45:43;8.48;;;3.20;;
78312;SDS011;67568;47.438;21.408;2023-04-05T01:48:10;10.60;;;3.90;;
78312;SDS011;67568;47.438;21.408;2023-04-05T01:50:38;8.57;;;3.30;;
78312;SDS011;67568;47.438;21.408;2023-04-05T01:53:08;11.15;;;3.75;;
78312;SDS011;67568;47.438;21.408;2023-04-05T01:55:35;7.20;;;3.55;;
78312;SDS011;67568;47.438;21.408;2023-04-05T01:58:01;9.68;;;3.95;;
78312;SDS011;67568;47.438;21.408;2023-04-05T02:00:28;10.48;;;4.32;;
78312;SDS011;67568;47.438;21.408;2023-04-05T02:02:55;10.50;;;3.90;;
78312;SDS011;67568;47.438;21.408;2023-04-05T02:05:21;9.15;;;3.85;;
78312;SDS011;67568;47.438;21.408;2023-04-05T02:07:48;9.15;;;3.88;;
78312;SDS011;67568;47.438;21.408;2023-04-05T02:10:14;10.45;;;3.78;;
78312;SDS011;67568;47.438;21.408;2023-04-05T02:12:41;8.82;;;3.83;;
78312;SDS011;67568;47.438;21.408;2023-04-05T02:15:08;8.70;;;3.73;;
78312;SDS011;67568;47.438;21.408;2023-04-05T02:17:35;8.82;;;3.53;;
78312;SDS011;67568;47.438;21.408;2023-04-05T02:20:02;10.80;;;3.95;;
78312;SDS011;67568;47.438;21.408;2023-04-05T02:22:29;9.05;;;3.75;;
78312;SDS011;67568;47.438;21.408;2023-04-05T02:24:55;7.95;;;3.75;;
78312;SDS011;67568;47.438;21.408;2023-04-05T02:27:22;6.73;;;3.10;;
78312;SDS011;67568;47.438;21.408;2023-04-05T02:29:48;11.30;;;3.70;;
78312;SDS011;67568;47.438;21.408;2023-04-05T02:32:15;10.82;;;4.07;;
78312;SDS011;67568;47.438;21.408;2023-04-05T02:34:41;9.35;;;3.55;;
78312;SDS011;67568;47.438;21.408;2023-04-05T02:37:08;13.60;;;3.10;;
78312;SDS011;67568;47.438;21.408;2023-04-05T02:39:34;8.93;;;3.20;;
78312;SDS011;67568;47.438;21.408;2023-04-05T02:42:01;7.88;;;3.20;;
78312;SDS011;67568;47.438;21.408;2023-04-05T02:44:28;7.05;;;3.53;;
78312;SDS011;67568;47.438;21.408;2023-04-05T02:46:55;10.18;;;3.58;;
78312;SDS011;67568;47.438;21.408;2023-04-05T02:49:21;8.40;;;3.28;;
78312;SDS011;67568;47.438;21.408;2023-04-05T02:51:48;13.67;;;3.90;;
78312;SDS011;67568;47.438;21.408;2023-04-05T02:54:14;8.85;;;2.95;;
78312;SDS011;67568;47.438;21.408;2023-04-05T02:56:41;9.13;;;3.03;;
78312;SDS011;67568;47.438;21.408;2023-04-05T02:59:07;8.38;;;2.70;;
78312;SDS011;67568;47.438;21.408;2023-04-05T03:01:34;8.32;;;3.05;;
78312;SDS011;67568;47.438;21.408;2023-04-05T03:04:01;7.13;;;2.90;;
78312;SDS011;67568;47.438;21.408;2023-04-05T03:06:28;8.60;;;3.13;;
78312;SDS011;67568;47.438;21.408;2023-04-05T03:08:54;7.05;;;2.63;;
78312;SDS011;67568;47.438;21.408;2023-04-05T03:11:21;6.75;;;2.67;;
78312;SDS011;67568;47.438;21.408;2023-04-05T03:13:47;7.32;;;2.83;;
78312;SDS011;67568;47.438;21.408;2023-04-05T03:16:14;7.60;;;2.73;;
78312;SDS011;67568;47.438;21.408;2023-04-05T03:18:41;7.05;;;3.00;;
78312;SDS011;67568;47.438;21.408;2023-04-05T03:21:07;7.65;;;2.65;;
78312;SDS011;67568;47.438;21.408;2023-04-05T03:23:34;6.13;;;2.70;;
78312;SDS011;67568;47.438;21.408;2023-04-05T03:26:00;10.02;;;2.90;;
78312;SDS011;67568;47.438;21.408;2023-04-05T03:28:29;8.23;;;2.50;;
78312;SDS011;67568;47.438;21.408;2023-04-05T03:30:56;14.38;;;3.13;;
78312;SDS011;67568;47.438;21.408;2023-04-05T03:33:23;6.32;;;2.58;;
78312;SDS011;67568;47.438;21.408;2023-04-05T03:35:50;7.60;;;2.58;;
78312;SDS011;67568;47.438;21.408;2023-04-05T03:38:17;6.05;;;2.50;;
78312;SDS011;67568;47.438;21.408;2023-04-05T03:40:43;10.90;;;2.90;;
78312;SDS011;67568;47.438;21.408;2023-04-05T03:43:10;8.13;;;3.17;;
78312;SDS011;67568;47.438;21.408;2023-04-05T03:45:37;7.63;;;2.63;;
78312;SDS011;67568;47.438;21.408;2023-04-05T03:48:04;6.30;;;2.50;;
78312;SDS011;67568;47.438;21.408;2023-04-05T03:50:30;8.45;;;2.90;;
78312;SDS011;67568;47.438;21.408;2023-04-05T03:52:57;9.17;;;2.87;;
78312;SDS011;67568;47.438;21.408;2023-04-05T03:55:24;6.55;;;2.60;;
78312;SDS011;67568;47.438;21.408;2023-04-05T03:57:51;7.80;;;2.90;;
78312;SDS011;67568;47.438;21.408;2023-04-05T04:00:18;7.65;;;2.90;;
78312;SDS011;67568;47.438;21.408;2023-04-05T04:02:48;8.02;;;3.13;;
78312;SDS011;67568;47.438;21.408;2023-04-05T04:05:15;10.27;;;3.00;;
78312;SDS011;67568;47.438;21.408;2023-04-05T04:07:43;7.72;;;2.63;;
78312;SDS011;67568;47.438;21.408;2023-04-05T04:10:10;9.10;;;3.00;;
78312;SDS011;67568;47.438;21.408;2023-04-05T04:12:41;9.43;;;2.80;;
78312;SDS011;67568;47.438;21.408;2023-04-05T04:15:07;7.47;;;3.00;;
78312;SDS011;67568;47.438;21.408;2023-04-05T04:17:35;6.93;;;2.97;;
78312;SDS011;67568;47.438;21.408;2023-04-05T04:20:03;7.75;;;3.55;;
78312;SDS011;67568;47.438;21.408;2023-04-05T04:22:30;11.68;;;3.53;;
78312;SDS011;67568;47.438;21.408;2023-04-05T04:24:56;9.75;;;3.60;;
78312;SDS011;67568;47.438;21.408;2023-04-05T04:27:23;8.82;;;3.10;;
78312;SDS011;67568;47.438;21.408;2023-04-05T04:29:50;8.37;;;3.23;;
78312;SDS011;67568;47.438;21.408;2023-04-05T04:32:17;10.73;;;3.75;;
78312;SDS011;67568;47.438;21.408;2023-04-05T04:34:43;10.38;;;3.58;;
78312;SDS011;67568;47.438;21.408;2023-04-05T04:37:12;10.20;;;3.45;;
78312;SDS011;67568;47.438;21.408;2023-04-05T04:39:39;9.02;;;3.58;;
78312;SDS011;67568;47.438;21.408;2023-04-05T04:42:06;10.77;;;3.63;;
78312;SDS011;67568;47.438;21.408;2023-04-05T04:44:33;10.52;;;3.70;;
78312;SDS011;67568;47.438;21.408;2023-04-05T04:46:59;10.50;;;3.92;;
78312;SDS011;67568;47.438;21.408;2023-04-05T04:49:26;10.73;;;3.72;;
78312;SDS011;67568;47.438;21.408;2023-04-05T04:51:52;10.02;;;3.90;;
78312;SDS011;67568;47.438;21.408;2023-04-05T04:54:19;9.93;;;4.00;;
78312;SDS011;67568;47.438;21.408;2023-04-05T04:56:46;8.73;;;3.28;;
78312;SDS011;67568;47.438;21.408;2023-04-05T04:59:12;8.55;;;3.88;;
78312;SDS011;67568;47.438;21.408;2023-04-05T05:01:39;9.88;;;3.72;;
78312;SDS011;67568;47.438;21.408;2023-04-05T05:04:05;10.85;;;3.80;;
78312;SDS011;67568;47.438;21.408;2023-04-05T05:06:32;8.40;;;3.40;;
78312;SDS011;67568;47.438;21.408;2023-04-05T05:08:59;9.98;;;4.07;;
78312;SDS011;67568;47.438;21.408;2023-04-05T05:11:25;9.50;;;3.63;;
78312;SDS011;67568;47.438;21.408;2023-04-05T05:13:52;10.98;;;4.15;;
78312;SDS011;67568;47.438;21.408;2023-04-05T05:16:19;10.80;;;3.58;;
78312;SDS011;67568;47.438;21.408;2023-04-05T05:18:45;9.67;;;3.73;;
78312;SDS011;67568;47.438;21.408;2023-04-05T05:21:12;10.93;;;4.15;;
78312;SDS011;67568;47.438;21.408;2023-04-05T05:23:39;11.88;;;4.05;;
78312;SDS011;67568;47.438;21.408;2023-04-05T05:26:06;13.52;;;3.90;;
78312;SDS011;67568;47.438;21.408;2023-04-05T05:28:32;10.02;;;3.88;;
78312;SDS011;67568;47.438;21.408;2023-04-05T05:30:59;11.60;;;4.47;;
78312;SDS011;67568;47.438;21.408;2023-04-05T05:33:26;10.80;;;3.85;;
78312;SDS011;67568;47.438;21.408;2023-04-05T05:35:52;11.55;;;4.18;;
78312;SDS011;67568;47.438;21.408;2023-04-05T05:38:20;10.82;;;4.13;;
78312;SDS011;67568;47.438;21.408;2023-04-05T05:40:56;14.68;;;5.53;;
78312;SDS011;67568;47.438;21.408;2023-04-05T05:43:25;10.97;;;4.87;;
78312;SDS011;67568;47.438;21.408;2023-04-05T05:46:00;12.48;;;5.53;;
78312;SDS011;67568;47.438;21.408;2023-04-05T05:48:28;11.30;;;4.30;;
78312;SDS011;67568;47.438;21.408;2023-04-05T05:50:55;9.15;;;3.85;;
78312;SDS011;67568;47.438;21.408;2023-04-05T05:53:36;14.02;;;3.28;;
78312;SDS011;67568;47.438;21.408;2023-04-05T05:56:03;8.87;;;3.90;;
78312;SDS011;67568;47.438;21.408;2023-04-05T05:58:32;11.35;;;3.80;;
78312;SDS011;67568;47.438;21.408;2023-04-05T06:01:16;13.13;;;3.80;;
78312;SDS011;67568;47.438;21.408;2023-04-05T06:03:43;12.98;;;4.05;;
78312;SDS011;67568;47.438;21.408;2023-04-05T06:06:39;10.52;;;4.25;;
78312;SDS011;67568;47.438;21.408;2023-04-05T06:09:06;8.30;;;3.33;;
78312;SDS011;67568;47.438;21.408;2023-04-05T06:11:37;9.70;;;3.92;;
78312;SDS011;67568;47.438;21.408;2023-04-05T06:17:39;11.30;;;3.65;;
78312;SDS011;67568;47.438;21.408;2023-04-05T06:20:22;9.43;;;3.97;;
78312;SDS011;67568;47.438;21.408;2023-04-05T06:22:49;10.40;;;4.70;;
78312;SDS011;67568;47.438;21.408;2023-04-05T06:25:16;9.38;;;3.72;;
78312;SDS011;67568;47.438;21.408;2023-04-05T06:27:46;8.48;;;3.45;;
78312;SDS011;67568;47.438;21.408;2023-04-05T06:30:13;9.32;;;4.05;;
78312;SDS011;67568;47.438;21.408;2023-04-05T06:32:40;10.52;;;4.13;;
78312;SDS011;67568;47.438;21.408;2023-04-05T06:35:16;7.93;;;3.47;;
78312;SDS011;67568;47.438;21.408;2023-04-05T06:37:42;10.80;;;4.60;;
78312;SDS011;67568;47.438;21.408;2023-04-05T06:40:09;10.50;;;4.32;;
78312;SDS011;67568;47.438;21.408;2023-04-05T06:42:36;9.05;;;3.65;;
78312;SDS011;67568;47.438;21.408;2023-04-05T06:45:06;11.45;;;4.00;;
78312;SDS011;67568;47.438;21.408;2023-04-05T06:47:48;9.80;;;3.37;;
78312;SDS011;67568;47.438;21.408;2023-04-05T06:50:19;10.40;;;3.70;;
78312;SDS011;67568;47.438;21.408;2023-04-05T06:52:47;8.23;;;3.55;;
78312;SDS011;67568;47.438;21.408;2023-04-05T06:55:13;10.63;;;3.60;;
78312;SDS011;67568;47.438;21.408;2023-04-05T06:57:40;7.85;;;3.70;;
78312;SDS011;67568;47.438;21.408;2023-04-05T07:00:08;10.80;;;3.30;;
78312;SDS011;67568;47.438;21.408;2023-04-05T07:02:42;10.95;;;3.58;;
78312;SDS011;67568;47.438;21.408;2023-04-05T07:05:17;11.82;;;3.47;;
78312;SDS011;67568;47.438;21.408;2023-04-05T07:07:49;8.65;;;3.30;;
78312;SDS011;67568;47.438;21.408;2023-04-05T07:10:18;12.35;;;3.58;;
78312;SDS011;67568;47.438;21.408;2023-04-05T07:12:45;10.50;;;3.40;;
78312;SDS011;67568;47.438;21.408;2023-04-05T07:15:12;10.40;;;3.58;;
78312;SDS011;67568;47.438;21.408;2023-04-05T07:17:44;8.48;;;2.80;;
78312;SDS011;67568;47.438;21.408;2023-04-05T07:20:18;10.50;;;3.33;;
78312;SDS011;67568;47.438;21.408;2023-04-05T07:22:46;9.15;;;3.05;;
78312;SDS011;67568;47.438;21.408;2023-04-05T07:25:17;7.60;;;3.30;;
78312;SDS011;67568;47.438;21.408;2023-04-05T07:27:45;7.47;;;3.28;;
78312;SDS011;67568;47.438;21.408;2023-04-05T07:30:12;9.35;;;4.18;;
78312;SDS011;67568;47.438;21.408;2023-04-05T07:32:39;10.05;;;3.50;;
78312;SDS011;67568;47.438;21.408;2023-04-05T07:35:08;10.38;;;3.85;;
78312;SDS011;67568;47.438;21.408;2023-04-05T07:37:35;9.17;;;3.70;;
78312;SDS011;67568;47.438;21.408;2023-04-05T07:40:05;8.65;;;3.92;;
78312;SDS011;67568;47.438;21.408;2023-04-05T07:42:35;7.80;;;3.28;;
78312;SDS011;67568;47.438;21.408;2023-04-05T07:45:19;8.80;;;3.25;;
78312;SDS011;67568;47.438;21.408;2023-04-05T07:48:09;11.52;;;3.05;;
78312;SDS011;67568;47.438;21.408;2023-04-05T07:50:36;8.13;;;3.03;;
78312;SDS011;67568;47.438;21.408;2023-04-05T07:53:13;12.25;;;3.70;;
78312;SDS011;67568;47.438;21.408;2023-04-05T07:55:43;11.38;;;3.83;;
78312;SDS011;67568;47.438;21.408;2023-04-05T07:58:09;9.30;;;3.42;;
78312;SDS011;67568;47.438;21.408;2023-04-05T08:00:39;10.05;;;3.67;;
78312;SDS011;67568;47.438;21.408;2023-04-05T08:03:07;11.50;;;3.33;;
78312;SDS011;67568;47.438;21.408;2023-04-05T08:06:11;10.20;;;3.10;;
78312;SDS011;67568;47.438;21.408;2023-04-05T08:08:49;13.80;;;3.35;;
78312;SDS011;67568;47.438;21.408;2023-04-05T08:11:52;13.07;;;3.63;;
78312;SDS011;67568;47.438;21.408;2023-04-05T08:14:38;9.85;;;3.38;;
78312;SDS011;67568;47.438;21.408;2023-04-05T08:17:18;6.93;;;2.90;;
78312;SDS011;67568;47.438;21.408;2023-04-05T08:19:53;12.93;;;3.28;;
78312;SDS011;67568;47.438;21.408;2023-04-05T08:22:26;9.82;;;3.60;;
78312;SDS011;67568;47.438;21.408;2023-04-05T08:24:57;7.80;;;3.22;;
78312;SDS011;67568;47.438;21.408;2023-04-05T08:27:28;9.75;;;3.65;;
78312;SDS011;67568;47.438;21.408;2023-04-05T08:29:58;13.00;;;3.20;;
78312;SDS011;67568;47.438;21.408;2023-04-05T08:32:29;12.80;;;3.50;;
78312;SDS011;67568;47.438;21.408;2023-04-05T08:35:03;12.60;;;3.10;;
78312;SDS011;67568;47.438;21.408;2023-04-05T08:37:35;12.00;;;3.05;;
78312;SDS011;67568;47.438;21.408;2023-04-05T08:40:02;10.60;;;3.47;;
78312;SDS011;67568;47.438;21.408;2023-04-05T08:42:33;9.10;;;3.17;;
78312;SDS011;67568;47.438;21.408;2023-04-05T08:45:02;6.32;;;2.78;;
78312;SDS011;67568;47.438;21.408;2023-04-05T08:47:30;8.57;;;2.80;;
78312;SDS011;67568;47.438;21.408;2023-04-05T08:49:57;8.30;;;2.80;;
78312;SDS011;67568;47.438;21.408;2023-04-05T08:52:27;13.35;;;3.00;;
78312;SDS011;67568;47.438;21.408;2023-04-05T08:54:59;10.80;;;3.23;;
78312;SDS011;67568;47.438;21.408;2023-04-05T08:57:42;11.82;;;3.47;;
78312;SDS011;67568;47.438;21.408;2023-04-05T09:00:24;8.55;;;3.30;;
78312;SDS011;67568;47.438;21.408;2023-04-05T09:03:02;9.70;;;3.40;;
78312;SDS011;67568;47.438;21.408;2023-04-05T09:08:35;13.33;;;3.20;;
78312;SDS011;67568;47.438;21.408;2023-04-05T09:11:18;9.23;;;3.38;;
78312;SDS011;67568;47.438;21.408;2023-04-05T09:13:57;8.27;;;3.13;;
78312;SDS011;67568;47.438;21.408;2023-04-05T09:16:47;10.77;;;3.20;;
78312;SDS011;67568;47.438;21.408;2023-04-05T09:19:16;10.98;;;3.42;;
78312;SDS011;67568;47.438;21.408;2023-04-05T09:22:05;9.10;;;2.83;;
78312;SDS011;67568;47.438;21.408;2023-04-05T09:24:37;10.45;;;2.88;;
78312;SDS011;67568;47.438;21.408;2023-04-05T09:27:09;10.63;;;2.53;;
78312;SDS011;67568;47.438;21.408;2023-04-05T09:29:36;9.90;;;3.33;;
78312;SDS011;67568;47.438;21.408;2023-04-05T09:32:15;9.57;;;3.55;;
78312;SDS011;67568;47.438;21.408;2023-04-05T09:34:43;8.97;;;3.37;;
78312;SDS011;67568;47.438;21.408;2023-04-05T09:37:17;11.95;;;3.40;;
78312;SDS011;67568;47.438;21.408;2023-04-05T09:39:46;13.05;;;4.00;;
78312;SDS011;67568;47.438;21.408;2023-04-05T09:42:15;7.32;;;3.08;;
78312;SDS011;67568;47.438;21.408;2023-04-05T09:44:59;9.35;;;2.72;;
78312;SDS011;67568;47.438;21.408;2023-04-05T09:47:27;9.20;;;3.00;;
78312;SDS011;67568;47.438;21.408;2023-04-05T09:49:57;13.13;;;3.20;;
78312;SDS011;67568;47.438;21.408;2023-04-05T09:53:03;8.88;;;3.20;;
78312;SDS011;67568;47.438;21.408;2023-04-05T09:55:46;8.73;;;2.90;;
78312;SDS011;67568;47.438;21.408;2023-04-05T09:58:30;10.73;;;3.10;;
78312;SDS011;67568;47.438;21.408;2023-04-05T10:01:21;6.70;;;2.53;;
78312;SDS011;67568;47.438;21.408;2023-04-05T10:03:50;14.25;;;3.13;;
78312;SDS011;67568;47.438;21.408;2023-04-05T10:06:21;9.52;;;3.03;;
78312;SDS011;67568;47.438;21.408;2023-04-05T10:08:49;10.73;;;2.83;;
78312;SDS011;67568;47.438;21.408;2023-04-05T10:11:17;11.70;;;2.90;;
78312;SDS011;67568;47.438;21.408;2023-04-05T10:13:44;7.60;;;2.13;;
78312;SDS011;67568;47.438;21.408;2023-04-05T10:16:21;9.18;;;2.75;;
78312;SDS011;67568;47.438;21.408;2023-04-05T10:18:56;9.95;;;2.13;;
78312;SDS011;67568;47.438;21.408;2023-04-05T10:21:35;8.15;;;2.22;;
78312;SDS011;67568;47.438;21.408;2023-04-05T10:24:33;11.00;;;2.80;;
78312;SDS011;67568;47.438;21.408;2023-04-05T10:27:29;6.77;;;2.20;;
78312;SDS011;67568;47.438;21.408;2023-04-05T10:30:34;8.23;;;2.40;;
78312;SDS011;67568;47.438;21.408;2023-04-05T10:33:09;8.73;;;2.35;;
78312;SDS011;67568;47.438;21.408;2023-04-05T10:35:54;9.70;;;2.42;;
78312;SDS011;67568;47.438;21.408;2023-04-05T10:38:28;7.70;;;2.28;;
78312;SDS011;67568;47.438;21.408;2023-04-05T10:41:12;9.47;;;2.43;;
78312;SDS011;67568;47.438;21.408;2023-04-05T10:43:40;7.20;;;2.10;;
78312;SDS011;67568;47.438;21.408;2023-04-05T10:46:07;9.00;;;2.20;;
78312;SDS011;67568;47.438;21.408;2023-04-05T10:48:43;8.85;;;2.38;;
78312;SDS011;67568;47.438;21.408;2023-04-05T10:51:33;10.10;;;2.40;;
78312;SDS011;67568;47.438;21.408;2023-04-05T10:54:03;10.67;;;2.53;;
78312;SDS011;67568;47.438;21.408;2023-04-05T10:56:36;6.68;;;2.22;;
78312;SDS011;67568;47.438;21.408;2023-04-05T10:59:04;6.63;;;2.33;;
78312;SDS011;67568;47.438;21.408;2023-04-05T11:01:31;9.13;;;2.22;;
78312;SDS011;67568;47.438;21.408;2023-04-05T11:04:09;10.13;;;2.65;;
78312;SDS011;67568;47.438;21.408;2023-04-05T11:06:37;11.23;;;2.10;;
78312;SDS011;67568;47.438;21.408;2023-04-05T11:09:14;9.73;;;2.17;;
78312;SDS011;67568;47.438;21.408;2023-04-05T11:11:47;8.32;;;2.50;;
78312;SDS011;67568;47.438;21.408;2023-04-05T11:16:57;6.45;;;2.17;;
78312;SDS011;67568;47.438;21.408;2023-04-05T11:20:03;6.17;;;2.40;;
78312;SDS011;67568;47.438;21.408;2023-04-05T11:22:31;6.40;;;2.00;;
78312;SDS011;67568;47.438;21.408;2023-04-05T11:25:00;5.60;;;2.63;;
78312;SDS011;67568;47.438;21.408;2023-04-05T11:27:28;6.70;;;2.00;;
78312;SDS011;67568;47.438;21.408;2023-04-05T11:29:59;10.07;;;2.10;;
78312;SDS011;67568;47.438;21.408;2023-04-05T11:32:40;5.93;;;2.07;;
78312;SDS011;67568;47.438;21.408;2023-04-05T11:35:12;5.97;;;1.85;;
78312;SDS011;67568;47.438;21.408;2023-04-05T11:40:31;5.72;;;1.88;;
78312;SDS011;67568;47.438;21.408;2023-04-05T11:43:06;11.73;;;2.13;;
78312;SDS011;67568;47.438;21.408;2023-04-05T11:45:35;9.70;;;1.93;;
78312;SDS011;67568;47.438;21.408;2023-04-05T11:48:13;7.25;;;1.90;;
78312;SDS011;67568;47.438;21.408;2023-04-05T11:50:40;5.85;;;1.83;;
78312;SDS011;67568;47.438;21.408;2023-04-05T11:53:14;9.88;;;2.13;;
78312;SDS011;67568;47.438;21.408;2023-04-05T11:55:45;11.88;;;2.10;;
78312;SDS011;67568;47.438;21.408;2023-04-05T11:58:22;7.43;;;2.00;;
78312;SDS011;67568;47.438;21.408;2023-04-05T12:01:00;9.13;;;2.42;;
78312;SDS011;67568;47.438;21.408;2023-04-05T12:03:31;7.40;;;1.80;;
78312;SDS011;67568;47.438;21.408;2023-04-05T12:05:59;10.00;;;2.17;;
78312;SDS011;67568;47.438;21.408;2023-04-05T12:08:40;7.20;;;2.03;;
78312;SDS011;67568;47.438;21.408;2023-04-05T12:11:10;8.30;;;2.03;;
78312;SDS011;67568;47.438;21.408;2023-04-05T12:13:37;12.93;;;2.13;;
78312;SDS011;67568;47.438;21.408;2023-04-05T12:16:07;7.70;;;2.00;;
78312;SDS011;67568;47.438;21.408;2023-04-05T12:18:37;6.03;;;1.70;;
78312;SDS011;67568;47.438;21.408;2023-04-05T12:21:18;6.63;;;2.00;;
78312;SDS011;67568;47.438;21.408;2023-04-05T12:23:46;10.77;;;2.20;;
78312;SDS011;67568;47.438;21.408;2023-04-05T12:26:16;5.65;;;1.73;;
78312;SDS011;67568;47.438;21.408;2023-04-05T12:28:57;5.63;;;1.80;;
78312;SDS011;67568;47.438;21.408;2023-04-05T12:31:35;6.30;;;2.10;;
78312;SDS011;67568;47.438;21.408;2023-04-05T12:34:05;5.78;;;1.88;;
78312;SDS011;67568;47.438;21.408;2023-04-05T12:36:33;5.83;;;1.80;;
78312;SDS011;67568;47.438;21.408;2023-04-05T12:39:04;4.25;;;1.58;;
78312;SDS011;67568;47.438;21.408;2023-04-05T12:41:33;5.32;;;1.48;;
78312;SDS011;67568;47.438;21.408;2023-04-05T12:44:03;6.38;;;1.60;;
78312;SDS011;67568;47.438;21.408;2023-04-05T12:46:58;6.03;;;1.65;;
78312;SDS011;67568;47.438;21.408;2023-04-05T12:49:26;6.40;;;1.83;;
78312;SDS011;67568;47.438;21.408;2023-04-05T12:51:53;6.93;;;1.67;;
78312;SDS011;67568;47.438;21.408;2023-04-05T12:54:25;7.38;;;1.75;;
78312;SDS011;67568;47.438;21.408;2023-04-05T12:56:52;10.27;;;2.88;;
78312;SDS011;67568;47.438;21.408;2023-04-05T12:59:20;7.78;;;2.33;;
78312;SDS011;67568;47.438;21.408;2023-04-05T13:01:50;9.80;;;2.13;;
78312;SDS011;67568;47.438;21.408;2023-04-05T13:04:21;8.65;;;2.05;;
78312;SDS011;67568;47.438;21.408;2023-04-05T13:06:48;11.93;;;3.83;;
78312;SDS011;67568;47.438;21.408;2023-04-05T13:09:15;9.25;;;2.45;;
78312;SDS011;67568;47.438;21.408;2023-04-05T13:11:41;13.60;;;3.05;;
78312;SDS011;67568;47.438;21.408;2023-04-05T13:14:08;8.87;;;2.20;;
78312;SDS011;67568;47.438;21.408;2023-04-05T13:16:35;5.07;;;1.80;;
78312;SDS011;67568;47.438;21.408;2023-04-05T13:19:09;5.35;;;1.73;;
78312;SDS011;67568;47.438;21.408;2023-04-05T13:21:35;11.65;;;2.10;;
78312;SDS011;67568;47.438;21.408;2023-04-05T13:24:02;7.93;;;1.85;;
78312;SDS011;67568;47.438;21.408;2023-04-05T13:26:29;10.97;;;3.10;;
78312;SDS011;67568;47.438;21.408;2023-04-05T13:28:56;8.68;;;1.98;;
78312;SDS011;67568;47.438;21.408;2023-04-05T13:31:22;8.30;;;1.95;;
78312;SDS011;67568;47.438;21.408;2023-04-05T13:33:49;4.75;;;1.67;;
78312;SDS011;67568;47.438;21.408;2023-04-05T13:36:19;7.20;;;1.50;;
78312;SDS011;67568;47.438;21.408;2023-04-05T13:38:45;5.30;;;1.57;;
78312;SDS011;67568;47.438;21.408;2023-04-05T17:25:46;11.52;;;4.65;;
78312;SDS011;67568;47.438;21.408;2023-04-05T17:28:13;8.00;;;3.60;;
78312;SDS011;67568;47.438;21.408;2023-04-05T17:30:39;7.93;;;3.53;;
78312;SDS011;67568;47.438;21.408;2023-04-05T17:33:06;10.05;;;2.60;;
78312;SDS011;67568;47.438;21.408;2023-04-05T17:35:32;9.25;;;2.90;;
78312;SDS011;67568;47.438;21.408;2023-04-05T17:37:59;6.35;;;2.40;;
78312;SDS011;67568;47.438;21.408;2023-04-05T17:40:26;10.20;;;2.80;;
78312;SDS011;67568;47.438;21.408;2023-04-05T17:42:52;7.07;;;2.80;;
78312;SDS011;67568;47.438;21.408;2023-04-05T17:45:19;8.07;;;2.67;;
78312;SDS011;67568;47.438;21.408;2023-04-05T17:47:45;9.77;;;2.67;;
78312;SDS011;67568;47.438;21.408;2023-04-05T17:50:12;7.78;;;2.83;;
78312;SDS011;67568;47.438;21.408;2023-04-05T17:52:42;8.00;;;3.00;;
78312;SDS011;67568;47.438;21.408;2023-04-05T17:55:09;8.60;;;2.90;;
78312;SDS011;67568;47.438;21.408;2023-04-05T17:57:35;8.60;;;3.08;;
78312;SDS011;67568;47.438;21.408;2023-04-05T18:00:02;9.45;;;3.15;;
78312;SDS011;67568;47.438;21.408;2023-04-05T18:02:32;8.38;;;3.15;;
78312;SDS011;67568;47.438;21.408;2023-04-05T18:04:59;11.20;;;3.50;;
78312;SDS011;67568;47.438;21.408;2023-04-05T18:07:25;6.80;;;2.88;;
78312;SDS011;67568;47.438;21.408;2023-04-05T18:09:52;8.52;;;2.67;;
78312;SDS011;67568;47.438;21.408;2023-04-05T18:12:19;8.90;;;3.33;;
78312;SDS011;67568;47.438;21.408;2023-04-05T18:14:53;12.57;;;3.40;;
78312;SDS011;67568;47.438;21.408;2023-04-05T18:17:20;8.90;;;3.20;;
78312;SDS011;67568;47.438;21.408;2023-04-05T18:19:46;13.18;;;3.17;;
78312;SDS011;67568;47.438;21.408;2023-04-05T18:22:13;8.23;;;2.90;;
78312;SDS011;67568;47.438;21.408;2023-04-05T18:24:41;8.52;;;3.13;;
78312;SDS011;67568;47.438;21.408;2023-04-05T18:27:08;8.75;;;3.25;;
78312;SDS011;67568;47.438;21.408;2023-04-05T18:29:35;12.37;;;3.47;;
78312;SDS011;67568;47.438;21.408;2023-04-05T18:32:02;8.02;;;3.35;;
78312;SDS011;67568;47.438;21.408;2023-04-05T18:34:30;11.52;;;3.25;;
78312;SDS011;67568;47.438;21.408;2023-04-05T18:36:56;7.18;;;3.00;;
78312;SDS011;67568;47.438;21.408;2023-04-05T18:39:26;9.27;;;3.70;;
78312;SDS011;67568;47.438;21.408;2023-04-05T18:41:53;7.63;;;2.90;;
78312;SDS011;67568;47.438;21.408;2023-04-05T18:44:19;9.55;;;3.58;;
78312;SDS011;67568;47.438;21.408;2023-04-05T18:46:46;10.52;;;4.00;;
78312;SDS011;67568;47.438;21.408;2023-04-05T18:49:13;7.43;;;2.83;;
78312;SDS011;67568;47.438;21.408;2023-04-05T18:51:42;8.57;;;3.22;;
78312;SDS011;67568;47.438;21.408;2023-04-05T18:54:09;8.30;;;3.10;;
78312;SDS011;67568;47.438;21.408;2023-04-05T18:56:36;10.88;;;3.10;;
78312;SDS011;67568;47.438;21.408;2023-04-05T18:59:02;8.48;;;3.40;;